Time;durP1;ratioP1;P1;durP2;ratioP2;P2;SDS_P1;SDS_P2;PMS_P1;PMS_P2;Temp;Humidity;BMP_temperature;BMP_pressure;BME280_temperature;BME280_humidity;BME280_pressure;Samples;Min_cycle;Max_cycle;Signal;HPM_P1;HPM_P2
2021/11/23 00:01:42;;;;;;;1.20;1.20;;;-1.20;99.90;;;;;;7386387;19;20308;-79
2021/11/23 00:04:08;;;;;;;1.55;1.45;;;-1.30;99.90;;;;;;7387615;19;20329;-78
2021/11/23 00:06:35;;;;;;;1.27;1.17;;;-1.20;99.90;;;;;;7386625;19;20341;-78
2021/11/23 00:09:01;;;;;;;1.70;1.60;;;-1.20;99.90;;;;;;7387080;19;20305;-78
2021/11/23 00:11:27;;;;;;;3.58;1.42;;;-1.30;99.90;;;;;;7386497;19;20367;-79
2021/11/23 00:13:52;;;;;;;1.57;1.23;;;-1.30;99.90;;;;;;7388427;19;20663;-78
2021/11/23 00:16:18;;;;;;;1.13;1.10;;;-1.20;99.90;;;;;;7384244;19;21940;-78
2021/11/23 00:18:44;;;;;;;1.20;1.20;;;-1.20;99.90;;;;;;7387527;19;20344;-78
2021/11/23 00:21:10;;;;;;;4.50;1.40;;;-1.30;99.90;;;;;;7385128;19;20366;-78
2021/11/23 00:23:35;;;;;;;1.50;1.40;;;-1.30;99.90;;;;;;7385467;19;20347;-78
2021/11/23 00:26:01;;;;;;;2.20;1.70;;;-1.30;99.90;;;;;;7383466;19;20312;-78
2021/11/23 00:28:27;;;;;;;2.05;1.85;;;-1.20;99.90;;;;;;7386002;19;20350;-78
2021/11/23 00:30:52;;;;;;;2.57;2.10;;;-1.20;99.90;;;;;;7385257;19;20874;-77
2021/11/23 00:33:18;;;;;;;1.58;1.38;;;-1.30;99.90;;;;;;7386022;19;20384;-79
2021/11/23 00:35:45;;;;;;;1.33;1.27;;;-1.30;99.90;;;;;;7385700;19;20332;-78
2021/11/23 00:38:10;;;;;;;1.00;1.00;;;-1.30;99.90;;;;;;7385173;19;20325;-79
2021/11/23 00:40:36;;;;;;;1.25;1.25;;;-1.30;99.90;;;;;;7383923;19;21106;-78
2021/11/23 00:43:05;;;;;;;1.70;1.13;;;-1.40;99.90;;;;;;7386876;19;20733;-78
2021/11/23 00:45:33;;;;;;;1.00;1.00;;;-1.40;99.90;;;;;;7383974;19;20891;-78
2021/11/23 00:47:59;;;;;;;1.15;1.15;;;-1.40;99.90;;;;;;7383671;19;20348;-78
2021/11/23 00:50:25;;;;;;;1.00;1.00;;;-1.40;99.90;;;;;;7382794;19;20337;-78
2021/11/23 00:52:50;;;;;;;1.42;1.23;;;-1.40;99.90;;;;;;7384336;19;20428;-79
2021/11/23 00:55:16;;;;;;;1.52;1.20;;;-1.40;99.90;;;;;;7383734;19;20716;-78
2021/11/23 00:57:42;;;;;;;2.00;1.80;;;-1.30;99.90;;;;;;7382527;19;20337;-81
2021/11/23 01:00:09;;;;;;;1.70;1.60;;;-1.30;99.90;;;;;;7382509;19;20428;-79
2021/11/23 01:02:35;;;;;;;2.25;2.03;;;-1.20;99.90;;;;;;7384722;19;20891;-78
2021/11/23 01:05:01;;;;;;;3.72;1.63;;;-1.20;99.90;;;;;;7383777;19;20345;-78
2021/11/23 01:07:26;;;;;;;1.40;1.30;;;-1.20;99.90;;;;;;7388366;19;20400;-78
2021/11/23 01:09:52;;;;;;;1.40;1.30;;;-1.10;99.90;;;;;;7386961;19;20321;-78
2021/11/23 01:12:18;;;;;;;1.35;1.25;;;-1.20;99.90;;;;;;7389346;19;20352;-78
2021/11/23 01:14:43;;;;;;;1.55;1.45;;;-1.20;99.90;;;;;;7384909;19;20322;-78
2021/11/23 01:17:09;;;;;;;1.30;1.20;;;-1.20;99.90;;;;;;7385199;19;20329;-78
2021/11/23 01:19:35;;;;;;;1.70;1.25;;;-1.20;99.90;;;;;;7382435;19;20360;-78
2021/11/23 01:22:01;;;;;;;1.40;1.30;;;-1.20;99.90;;;;;;7384290;19;20324;-78
2021/11/23 01:24:26;;;;;;;1.97;1.30;;;-1.20;99.90;;;;;;7381260;19;20304;-78
2021/11/23 01:26:52;;;;;;;1.30;1.23;;;-1.20;99.90;;;;;;7383573;19;20308;-78
2021/11/23 01:29:18;;;;;;;0.82;0.82;;;-1.20;99.90;;;;;;7383457;19;20372;-78
2021/11/23 01:31:43;;;;;;;1.20;1.10;;;-1.20;99.90;;;;;;7382907;19;20961;-78
2021/11/23 01:34:09;;;;;;;1.10;1.00;;;-1.10;99.90;;;;;;7384738;19;20322;-78
2021/11/23 01:36:35;;;;;;;0.88;0.88;;;-1.20;99.90;;;;;;7383053;19;20419;-78
2021/11/23 01:39:00;;;;;;;1.27;1.17;;;-1.10;99.90;;;;;;7379750;19;20342;-78
2021/11/23 01:41:26;;;;;;;1.05;1.05;;;-1.10;99.90;;;;;;7382479;19;20392;-78
2021/11/23 01:43:52;;;;;;;1.10;1.10;;;-1.10;99.90;;;;;;7382511;19;20332;-78
2021/11/23 01:46:17;;;;;;;1.00;1.00;;;-1.10;99.90;;;;;;7381887;19;20745;-80
2021/11/23 01:48:43;;;;;;;1.33;1.23;;;-1.00;99.90;;;;;;7381666;19;20304;-78
2021/11/23 01:51:09;;;;;;;1.67;1.20;;;-1.00;99.90;;;;;;7379467;19;20356;-78
2021/11/23 01:53:34;;;;;;;1.90;1.15;;;-1.10;99.90;;;;;;7381830;19;20313;-78
2021/11/23 01:56:00;;;;;;;1.60;1.17;;;-1.20;99.90;;;;;;7381134;19;20332;-78
2021/11/23 01:58:25;;;;;;;1.60;1.27;;;-1.20;99.90;;;;;;7380800;19;20320;-79
2021/11/23 02:00:51;;;;;;;1.25;1.20;;;-1.20;99.90;;;;;;7379973;19;20701;-78
2021/11/23 02:03:17;;;;;;;1.17;1.17;;;-1.10;99.90;;;;;;7380417;19;20386;-78
2021/11/23 02:05:44;;;;;;;1.17;1.10;;;-1.20;99.90;;;;;;7381025;19;20356;-78
2021/11/23 02:08:11;;;;;;;1.25;1.20;;;-1.20;99.90;;;;;;7382330;19;20331;-78
2021/11/23 02:10:37;;;;;;;1.35;1.25;;;-1.20;99.90;;;;;;7379102;19;20909;-79
2021/11/23 02:13:03;;;;;;;0.80;0.80;;;-1.20;99.90;;;;;;7385302;19;20317;-79
2021/11/23 02:15:29;;;;;;;1.13;1.08;;;-1.20;99.90;;;;;;7385122;19;20321;-79
2021/11/23 02:17:55;;;;;;;1.00;1.00;;;-1.20;99.90;;;;;;7385544;19;20328;-79
2021/11/23 02:20:21;;;;;;;2.30;1.40;;;-1.20;99.90;;;;;;7388948;19;20333;-79
2021/11/23 02:22:47;;;;;;;1.20;1.20;;;-1.20;99.90;;;;;;7387324;19;20736;-79
2021/11/23 02:25:14;;;;;;;0.98;0.98;;;-1.20;99.90;;;;;;7387445;19;20324;-80
2021/11/23 02:27:41;;;;;;;1.02;1.02;;;-1.20;99.90;;;;;;7382347;19;20352;-79
2021/11/23 02:30:07;;;;;;;1.20;1.10;;;-1.20;99.90;;;;;;7381359;19;20347;-80
2021/11/23 02:32:45;;;;;;;1.13;1.13;;;-1.20;99.90;;;;;;7385921;19;20870;-80
2021/11/23 02:35:11;;;;;;;2.10;1.10;;;-1.10;99.90;;;;;;7382594;19;20361;-80
2021/11/23 02:37:44;;;;;;;1.20;1.20;;;-1.10;99.90;;;;;;7387095;19;20312;-79
2021/11/23 02:40:10;;;;;;;1.50;1.40;;;-1.10;99.90;;;;;;7384131;19;20878;-79
2021/11/23 02:42:36;;;;;;;1.50;1.40;;;-1.10;99.90;;;;;;7382890;19;20369;-79
2021/11/23 02:45:02;;;;;;;1.37;1.27;;;-1.20;99.90;;;;;;7381162;19;20815;-78
2021/11/23 02:47:34;;;;;;;1.48;1.38;;;-1.20;99.90;;;;;;7382788;19;20328;-79
2021/11/23 02:50:00;;;;;;;1.52;1.40;;;-1.10;99.90;;;;;;7382299;19;20380;-79
2021/11/23 02:52:26;;;;;;;1.65;1.55;;;-1.10;99.90;;;;;;7384668;19;20305;-79
2021/11/23 02:54:59;;;;;;;2.37;1.40;;;-1.10;99.90;;;;;;7383805;19;20335;-80
2021/11/23 02:57:28;;;;;;;1.60;1.50;;;-1.10;99.90;;;;;;7385939;19;20389;-80
2021/11/23 02:59:54;;;;;;;1.40;1.30;;;-1.10;99.90;;;;;;7380388;19;20332;-80
2021/11/23 03:02:20;;;;;;;1.70;1.60;;;-1.10;99.90;;;;;;7383030;19;20715;-79
2021/11/23 03:04:52;;;;;;;1.52;1.42;;;-1.10;99.90;;;;;;7385568;19;20308;-79
2021/11/23 03:07:18;;;;;;;1.73;1.58;;;-1.10;99.90;;;;;;7388325;19;20331;-79
2021/11/23 03:09:44;;;;;;;1.40;1.30;;;-1.10;99.90;;;;;;7387277;19;20345;-79
2021/11/23 03:12:17;;;;;;;1.63;1.52;;;-1.10;99.90;;;;;;7389087;19;20316;-79
2021/11/23 03:14:43;;;;;;;1.80;1.67;;;-1.10;99.90;;;;;;7391695;19;20398;-79
2021/11/23 03:17:09;;;;;;;2.00;1.80;;;-1.00;99.90;;;;;;7387182;19;20699;-79
2021/11/23 03:19:35;;;;;;;1.75;1.58;;;-0.90;99.90;;;;;;7391457;19;20364;-80
2021/11/23 03:22:02;;;;;;;1.83;1.73;;;-1.00;99.90;;;;;;7388568;19;20312;-78
2021/11/23 03:24:28;;;;;;;1.90;1.80;;;-1.00;99.90;;;;;;7387625;19;20965;-79
2021/11/23 03:26:54;;;;;;;1.90;1.80;;;-0.90;99.90;;;;;;7388665;19;20305;-80
2021/11/23 03:29:19;;;;;;;1.77;1.67;;;-0.90;99.90;;;;;;7389022;19;20336;-79
2021/11/23 03:31:45;;;;;;;2.20;2.00;;;-0.90;99.90;;;;;;7390077;19;20305;-79
2021/11/23 03:34:11;;;;;;;2.97;2.28;;;-0.90;99.90;;;;;;7387788;19;20313;-80
2021/11/23 03:36:39;;;;;;;1.97;1.87;;;-0.90;99.90;;;;;;7386160;19;20376;-79
2021/11/23 03:39:06;;;;;;;3.00;2.40;;;-0.90;99.90;;;;;;7389608;19;20372;-80
2021/11/23 03:41:32;;;;;;;2.80;2.60;;;-0.80;99.90;;;;;;7388701;19;20358;-79
2021/11/23 03:43:57;;;;;;;2.60;2.40;;;-0.80;99.90;;;;;;7394075;19;20308;-78
2021/11/23 03:46:23;;;;;;;2.60;2.40;;;-0.80;99.90;;;;;;7394755;19;20317;-80
2021/11/23 03:48:49;;;;;;;2.93;2.30;;;-0.80;99.90;;;;;;7391720;19;20332;-80
2021/11/23 03:51:15;;;;;;;2.40;2.20;;;-0.80;99.90;;;;;;7389126;19;20305;-81
2021/11/23 03:53:40;;;;;;;3.83;2.45;;;-0.80;99.90;;;;;;7390159;19;20320;-79
2021/11/23 03:56:06;;;;;;;2.75;2.55;;;-0.80;99.90;;;;;;7389854;19;20347;-79
2021/11/23 03:58:32;;;;;;;3.20;2.70;;;-0.70;99.90;;;;;;7388318;19;20348;-79
2021/11/23 04:00:57;;;;;;;3.63;3.33;;;-0.80;99.90;;;;;;7389089;19;20321;-79
2021/11/23 04:03:23;;;;;;;3.47;3.05;;;-0.70;99.90;;;;;;7390224;19;20328;-80
2021/11/23 04:05:49;;;;;;;3.60;2.40;;;-0.70;99.90;;;;;;7389090;19;20379;-79
2021/11/23 04:08:14;;;;;;;3.05;2.75;;;-0.70;99.90;;;;;;7387942;19;20368;-80
2021/11/23 04:10:40;;;;;;;3.30;3.00;;;-0.70;99.90;;;;;;7387038;19;20300;-78
2021/11/23 04:13:06;;;;;;;3.43;3.10;;;-0.70;99.90;;;;;;7388914;19;20305;-79
2021/11/23 04:15:31;;;;;;;3.10;2.67;;;-0.70;99.90;;;;;;7386014;19;20321;-78
2021/11/23 04:17:57;;;;;;;3.87;3.30;;;-0.60;99.90;;;;;;7387715;19;20321;-79
2021/11/23 04:20:23;;;;;;;4.03;3.22;;;-0.60;99.90;;;;;;7387728;19;20344;-82
2021/11/23 04:22:49;;;;;;;3.30;3.03;;;-0.60;99.90;;;;;;7387606;19;20340;-78
2021/11/23 04:25:15;;;;;;;4.10;3.50;;;-0.70;99.90;;;;;;7386913;19;20324;-79
2021/11/23 04:27:41;;;;;;;3.13;2.88;;;-0.60;99.90;;;;;;7386455;19;20349;-79
2021/11/23 04:30:07;;;;;;;3.87;3.33;;;-0.60;99.90;;;;;;7386416;19;20324;-79
2021/11/23 04:32:32;;;;;;;2.90;2.70;;;-0.60;99.90;;;;;;7389784;19;20320;-79
2021/11/23 04:34:58;;;;;;;3.43;3.13;;;-0.60;99.90;;;;;;7385951;19;20708;-78
2021/11/23 04:37:24;;;;;;;2.95;2.75;;;-0.60;99.90;;;;;;7386325;19;20320;-81
2021/11/23 04:39:52;;;;;;;3.00;2.70;;;-0.60;99.90;;;;;;7387500;19;20359;-79
2021/11/23 04:42:17;;;;;;;3.47;2.70;;;-0.60;99.90;;;;;;7376572;19;20709;-78
2021/11/23 04:44:43;;;;;;;5.60;3.20;;;-0.50;99.90;;;;;;7385794;19;20376;-79
2021/11/23 04:47:08;;;;;;;3.63;3.33;;;-0.50;99.90;;;;;;7388281;19;20645;-79
2021/11/23 04:49:34;;;;;;;3.70;3.40;;;-0.50;99.90;;;;;;7385363;19;20309;-78
2021/11/23 04:52:00;;;;;;;3.78;3.13;;;-0.40;99.90;;;;;;7386187;19;20338;-79
2021/11/23 04:54:25;;;;;;;4.13;3.20;;;-0.40;99.90;;;;;;7385092;19;20317;-79
2021/11/23 04:56:51;;;;;;;4.40;3.50;;;-0.40;99.90;;;;;;7385516;19;20355;-78
2021/11/23 04:59:17;;;;;;;3.60;3.30;;;-0.30;99.90;;;;;;7386610;19;20323;-79
2021/11/23 05:01:42;;;;;;;4.35;3.85;;;-0.30;99.90;;;;;;7386523;19;20345;-79
2021/11/23 05:04:08;;;;;;;3.60;3.10;;;-0.30;99.90;;;;;;7388627;19;20308;-78
2021/11/23 05:06:34;;;;;;;4.47;3.40;;;-0.30;99.90;;;;;;7384528;19;20694;-79
2021/11/23 05:09:00;;;;;;;4.63;3.47;;;-0.30;99.90;;;;;;7381556;19;20328;-78
2021/11/23 05:11:27;;;;;;;3.83;3.40;;;-0.30;99.90;;;;;;7385646;19;20325;-78
2021/11/23 05:13:53;;;;;;;4.35;3.28;;;-0.30;99.90;;;;;;7387753;19;20316;-79
2021/11/23 05:16:19;;;;;;;4.05;3.65;;;-0.30;99.90;;;;;;7391803;19;21212;-79
2021/11/23 05:18:45;;;;;;;4.03;3.63;;;-0.30;99.90;;;;;;7392420;19;20309;-78
2021/11/23 05:21:11;;;;;;;3.55;3.30;;;-0.30;99.90;;;;;;7384722;19;20329;-79
2021/11/23 05:23:36;;;;;;;3.95;3.60;;;-0.30;99.90;;;;;;7385665;19;20397;-79
2021/11/23 05:26:02;;;;;;;4.10;3.77;;;-0.30;99.90;;;;;;7384112;19;20360;-79
2021/11/23 05:28:28;;;;;;;3.63;3.33;;;-0.20;99.90;;;;;;7384275;19;20409;-78
2021/11/23 05:30:54;;;;;;;7.13;4.25;;;-0.20;99.90;;;;;;7388167;19;20333;-80
2021/11/23 05:33:19;;;;;;;3.47;3.17;;;-0.20;99.90;;;;;;7386438;19;20340;-79
2021/11/23 05:35:49;;;;;;;3.80;3.50;;;-0.20;99.90;;;;;;7386941;19;20312;-79
2021/11/23 05:38:16;;;;;;;3.47;3.15;;;-0.10;99.90;;;;;;7385703;19;20961;-81
2021/11/23 05:40:44;;;;;;;5.82;3.58;;;-0.10;99.90;;;;;;7391675;19;20420;-79
2021/11/23 05:43:09;;;;;;;3.97;3.42;;;-0.10;99.90;;;;;;7387295;19;20320;-79
2021/11/23 05:45:35;;;;;;;5.95;4.00;;;0.00;99.90;;;;;;7385928;19;20848;-79
2021/11/23 05:48:01;;;;;;;5.65;4.47;;;0.10;99.90;;;;;;7387007;19;20341;-78
2021/11/23 05:50:26;;;;;;;6.20;5.60;;;0.10;99.90;;;;;;7384607;19;20320;-79
2021/11/23 05:52:52;;;;;;;6.35;5.05;;;0.10;99.90;;;;;;7386946;19;20348;-79
2021/11/23 05:55:18;;;;;;;5.38;4.63;;;0.10;99.90;;;;;;7387785;19;20339;-79
2021/11/23 05:57:43;;;;;;;7.87;4.17;;;0.20;99.90;;;;;;7386805;19;20308;-79
2021/11/23 06:00:10;;;;;;;3.75;3.45;;;0.20;99.90;;;;;;7385376;19;20975;-78
2021/11/23 06:02:35;;;;;;;7.03;4.07;;;0.30;99.90;;;;;;7386187;19;20792;-80
2021/11/23 06:05:02;;;;;;;3.60;3.30;;;0.30;99.90;;;;;;7383623;19;20308;-78
2021/11/23 06:07:28;;;;;;;3.28;3.05;;;0.50;99.90;;;;;;7384803;19;20854;-79
2021/11/23 06:09:54;;;;;;;4.03;3.43;;;0.40;99.90;;;;;;7386104;19;20357;-80
2021/11/23 06:12:19;;;;;;;4.72;3.78;;;0.40;99.90;;;;;;7388004;19;20689;-78
2021/11/23 06:14:46;;;;;;;3.40;3.10;;;0.50;99.90;;;;;;7386838;19;20332;-78
2021/11/23 06:17:12;;;;;;;3.23;3.03;;;0.50;99.90;;;;;;7385718;19;20970;-78
2021/11/23 06:19:38;;;;;;;4.57;3.35;;;0.50;99.90;;;;;;7387941;19;20320;-79
2021/11/23 06:22:05;;;;;;;3.72;3.42;;;0.50;99.90;;;;;;7401767;19;20325;-79
2021/11/23 06:24:31;;;;;;;3.88;3.47;;;0.60;99.90;;;;;;7399085;19;20337;-79
2021/11/23 06:26:56;;;;;;;3.97;3.47;;;0.60;99.90;;;;;;7394344;19;20349;-80
2021/11/23 06:29:22;;;;;;;4.67;3.20;;;0.60;99.90;;;;;;7390258;19;20667;-80
2021/11/23 06:31:48;;;;;;;3.92;3.38;;;0.70;99.90;;;;;;7387549;19;20365;-77
2021/11/23 06:34:13;;;;;;;3.27;2.97;;;0.80;99.90;;;;;;7385153;19;20320;-79
2021/11/23 06:36:39;;;;;;;4.13;3.33;;;0.70;99.90;;;;;;7389474;19;20351;-79
2021/11/23 06:39:05;;;;;;;3.27;2.97;;;0.70;99.90;;;;;;7388322;19;20304;-79
2021/11/23 06:41:31;;;;;;;3.40;3.10;;;0.80;99.90;;;;;;7390614;19;20356;-79
2021/11/23 06:43:57;;;;;;;5.33;4.83;;;0.80;99.90;;;;;;7391783;19;20301;-79
2021/11/23 06:46:24;;;;;;;4.73;3.87;;;0.80;99.90;;;;;;7391479;19;20337;-79
2021/11/23 06:48:49;;;;;;;3.95;3.65;;;0.90;99.90;;;;;;7391862;19;20324;-79
2021/11/23 06:51:15;;;;;;;3.33;3.03;;;0.90;99.90;;;;;;7391075;19;20318;-81
2021/11/23 06:53:40;;;;;;;3.35;2.92;;;0.90;99.90;;;;;;7393386;19;20742;-79
2021/11/23 06:56:06;;;;;;;3.30;3.00;;;1.00;99.90;;;;;;7392022;19;20312;-79
2021/11/23 06:58:32;;;;;;;4.10;3.13;;;1.00;99.90;;;;;;7392620;19;20300;-78
2021/11/23 07:00:58;;;;;;;4.18;3.65;;;1.00;99.90;;;;;;7390342;19;20313;-78
2021/11/23 07:03:23;;;;;;;6.28;3.55;;;1.10;99.90;;;;;;7391366;19;20845;-79
2021/11/23 07:05:49;;;;;;;3.17;2.87;;;1.10;99.90;;;;;;7388773;19;21182;-78
2021/11/23 07:08:16;;;;;;;3.67;3.25;;;1.10;99.90;;;;;;7388479;19;20850;-78
2021/11/23 07:10:42;;;;;;;4.72;3.53;;;1.20;99.90;;;;;;7392744;19;20337;-78
2021/11/23 07:13:08;;;;;;;5.90;3.40;;;1.20;99.90;;;;;;7390376;19;20359;-77
2021/11/23 07:15:34;;;;;;;3.67;3.35;;;1.20;99.90;;;;;;7388707;19;20424;-77
2021/11/23 07:17:59;;;;;;;3.30;2.90;;;1.20;99.90;;;;;;7392543;19;20317;-78
2021/11/23 07:20:25;;;;;;;3.60;3.30;;;1.30;99.90;;;;;;7390012;19;20348;-78
2021/11/23 07:22:51;;;;;;;6.43;4.03;;;1.30;99.90;;;;;;7390388;19;20323;-77
2021/11/23 07:25:16;;;;;;;3.73;3.27;;;1.30;99.90;;;;;;7392415;19;20938;-78
2021/11/23 07:27:43;;;;;;;3.67;2.90;;;1.40;99.90;;;;;;7391297;19;20332;-78
2021/11/23 07:30:09;;;;;;;2.92;2.67;;;1.50;99.90;;;;;;7391396;19;20317;-78
2021/11/23 07:32:35;;;;;;;3.33;3.03;;;1.50;99.90;;;;;;7391237;19;20364;-78
2021/11/23 07:35:04;;;;;;;3.60;2.83;;;1.50;99.90;;;;;;7389597;19;20320;-77
2021/11/23 07:37:36;;;;;;;5.15;2.97;;;1.60;99.90;;;;;;7388070;19;20337;-79
2021/11/23 07:40:02;;;;;;;3.67;2.60;;;1.60;99.90;;;;;;7402284;19;20360;-78
2021/11/23 07:42:28;;;;;;;3.13;2.83;;;1.70;99.90;;;;;;7405669;19;20317;-79
2021/11/23 07:44:54;;;;;;;5.68;2.97;;;1.70;99.90;;;;;;7401290;19;20356;-78
2021/11/23 07:47:20;;;;;;;2.83;2.63;;;1.70;99.90;;;;;;7389848;19;20297;-78
2021/11/23 07:49:45;;;;;;;4.77;3.47;;;1.80;99.90;;;;;;7386816;19;20325;-79
2021/11/23 07:52:15;;;;;;;3.20;3.00;;;1.80;99.90;;;;;;7387030;19;20316;-79
2021/11/23 07:54:40;;;;;;;3.03;2.83;;;1.80;99.90;;;;;;7384463;19;20320;-79
2021/11/23 07:57:06;;;;;;;3.97;3.50;;;1.90;99.90;;;;;;7384151;19;20340;-79
2021/11/23 07:59:32;;;;;;;3.08;2.78;;;1.90;99.90;;;;;;7384114;19;21259;-79
2021/11/23 08:01:57;;;;;;;3.80;3.30;;;1.90;99.90;;;;;;7386179;19;20300;-78
2021/11/23 08:04:23;;;;;;;7.25;3.60;;;2.00;99.90;;;;;;7386800;19;20315;-78
2021/11/23 08:06:49;;;;;;;6.63;4.00;;;2.00;99.90;;;;;;7388024;19;20380;-78
2021/11/23 08:09:14;;;;;;;5.00;3.45;;;2.00;99.90;;;;;;7384282;19;20344;-78
2021/11/23 08:11:40;;;;;;;3.70;3.38;;;2.10;99.90;;;;;;7386753;19;20324;-79
2021/11/23 08:14:05;;;;;;;4.57;3.37;;;2.10;99.90;;;;;;7387801;19;20328;-78
2021/11/23 08:16:31;;;;;;;4.35;3.58;;;2.10;99.90;;;;;;7387731;19;20374;-78
2021/11/23 08:18:57;;;;;;;3.00;2.80;;;2.10;99.90;;;;;;7385280;19;20341;-80
2021/11/23 08:21:24;;;;;;;4.10;3.53;;;2.00;99.90;;;;;;7385798;19;20332;-79
2021/11/23 08:23:50;;;;;;;3.73;3.43;;;2.10;99.90;;;;;;7386409;19;20389;-78
2021/11/23 08:26:16;;;;;;;6.22;3.15;;;2.20;99.90;;;;;;7384860;19;20321;-78
2021/11/23 08:28:42;;;;;;;6.03;3.15;;;2.20;99.90;;;;;;7385175;19;20353;-78
2021/11/23 08:31:08;;;;;;;3.15;2.85;;;2.20;99.90;;;;;;7390782;19;20983;-79
2021/11/23 08:33:33;;;;;;;5.30;3.33;;;2.30;99.90;;;;;;7392057;19;20316;-78
2021/11/23 08:35:59;;;;;;;3.83;3.00;;;2.30;99.90;;;;;;7388999;19;20740;-79
2021/11/23 08:38:25;;;;;;;4.47;3.35;;;2.30;99.90;;;;;;7388318;19;20425;-79
2021/11/23 08:40:50;;;;;;;5.73;3.53;;;2.40;99.90;;;;;;7386241;19;20321;-79
2021/11/23 08:43:16;;;;;;;3.80;3.00;;;2.40;99.90;;;;;;7387715;19;20317;-80
2021/11/23 08:45:45;;;;;;;3.28;2.97;;;2.50;99.90;;;;;;7388136;19;20789;-78
2021/11/23 08:48:10;;;;;;;4.53;3.30;;;2.50;99.90;;;;;;7387576;19;20371;-79
2021/11/23 08:50:36;;;;;;;3.78;3.10;;;2.50;99.90;;;;;;7385424;19;20728;-79
2021/11/23 08:53:07;;;;;;;4.23;2.90;;;2.60;99.90;;;;;;7383399;19;20296;-78
2021/11/23 08:55:32;;;;;;;3.28;2.97;;;2.60;99.90;;;;;;7386565;19;20316;-79
2021/11/23 08:57:58;;;;;;;3.97;3.22;;;2.70;99.90;;;;;;7389954;19;20345;-80
2021/11/23 09:00:24;;;;;;;4.13;3.57;;;2.60;99.90;;;;;;7410094;19;20344;-81
2021/11/23 09:02:52;;;;;;;3.63;3.33;;;2.70;99.90;;;;;;7405153;19;20348;-82
2021/11/23 09:05:20;;;;;;;4.32;3.80;;;2.80;99.90;;;;;;7397937;19;20316;-82
2021/11/23 09:07:46;;;;;;;3.97;3.50;;;2.80;99.90;;;;;;7397323;19;20319;-79
2021/11/23 09:10:18;;;;;;;4.10;3.70;;;2.80;99.90;;;;;;7394881;19;20324;-81
2021/11/23 09:12:44;;;;;;;4.30;3.78;;;2.70;99.90;;;;;;7393466;19;20320;-82
2021/11/23 09:15:10;;;;;;;4.10;3.70;;;2.80;99.90;;;;;;7393096;19;20441;-83
2021/11/23 09:17:36;;;;;;;5.07;4.18;;;2.80;99.90;;;;;;7392425;19;20850;-81
2021/11/23 09:20:02;;;;;;;6.10;4.85;;;2.90;99.90;;;;;;7390945;19;20319;-81
2021/11/23 09:22:28;;;;;;;4.45;4.05;;;2.90;99.90;;;;;;7389809;19;20323;-81
2021/11/23 09:24:54;;;;;;;5.07;4.57;;;2.90;99.90;;;;;;7390192;19;20312;-80
2021/11/23 09:27:20;;;;;;;4.80;3.75;;;2.90;99.90;;;;;;7389916;19;20332;-81
2021/11/23 09:29:46;;;;;;;4.03;3.63;;;2.90;99.90;;;;;;7390175;19;20401;-81
2021/11/23 09:32:13;;;;;;;5.20;4.23;;;2.90;99.90;;;;;;7389114;19;20332;-79
2021/11/23 09:34:39;;;;;;;6.32;4.50;;;2.90;99.90;;;;;;7387412;19;20323;-81
2021/11/23 09:37:04;;;;;;;5.88;4.00;;;3.00;99.90;;;;;;7387072;19;20309;-81
2021/11/23 09:39:30;;;;;;;4.43;3.73;;;3.10;99.90;;;;;;7388090;19;20320;-80
2021/11/23 09:41:56;;;;;;;5.68;3.92;;;3.10;99.90;;;;;;7389940;19;20325;-81
2021/11/23 09:44:23;;;;;;;4.10;3.70;;;3.10;99.90;;;;;;7388134;19;20319;-80
2021/11/23 09:46:48;;;;;;;5.75;4.38;;;3.10;99.90;;;;;;7385576;19;20341;-79
2021/11/23 09:49:14;;;;;;;5.73;4.83;;;3.10;99.90;;;;;;7384205;19;20348;-80
2021/11/23 09:51:40;;;;;;;8.27;5.28;;;3.10;99.90;;;;;;7386433;19;20335;-80
2021/11/23 09:54:07;;;;;;;5.63;4.45;;;3.10;99.90;;;;;;7388267;19;20313;-81
2021/11/23 09:56:33;;;;;;;6.45;5.00;;;3.10;99.90;;;;;;7387128;19;20312;-81
2021/11/23 09:58:59;;;;;;;4.95;4.53;;;3.10;99.90;;;;;;7393941;19;20344;-80
2021/11/23 10:01:30;;;;;;;9.40;5.93;;;3.10;99.90;;;;;;7399199;19;20316;-80
2021/11/23 10:03:57;;;;;;;7.03;5.03;;;3.10;99.90;;;;;;7402876;19;20858;-80
2021/11/23 10:06:24;;;;;;;5.45;4.90;;;3.20;99.90;;;;;;7402959;19;21163;-81
2021/11/23 10:08:53;;;;;;;6.65;5.43;;;3.10;99.90;;;;;;7402216;19;20316;-82
2021/11/23 10:11:32;;;;;;;6.43;4.88;;;3.30;99.90;;;;;;7403042;19;20317;-83
2021/11/23 10:14:02;;;;;;;6.53;5.03;;;3.20;99.90;;;;;;7307946;19;2004376;-84
2021/11/23 10:16:41;;;;;;;5.80;5.28;;;3.20;99.90;;;;;;7415551;19;20299;-84
2021/11/23 10:19:09;;;;;;;5.38;4.68;;;3.30;99.90;;;;;;7313799;19;2004362;-83
2021/11/23 10:21:34;;;;;;;6.53;5.40;;;3.30;99.90;;;;;;7401542;19;20337;-85
2021/11/23 10:24:02;;;;;;;8.00;5.68;;;3.40;99.90;;;;;;7420520;19;20332;-83
2021/11/23 10:29:30;;;;;;;5.90;5.30;;;3.40;99.90;;;;;;7354034;19;20341;-86
2021/11/23 10:31:57;;;;;;;6.32;5.05;;;3.50;99.90;;;;;;7422900;19;20312;-90
2021/11/23 10:34:23;;;;;;;8.43;6.30;;;3.60;99.90;;;;;;7397258;19;20324;-85
2021/11/23 12:44:37;;;;;;;6.60;5.32;;;4.70;99.90;;;;;;7417765;19;20329;-83
2021/11/23 12:47:19;;;;;;;7.63;5.63;;;4.80;99.90;;;;;;7387536;19;20345;-83
2021/11/23 12:49:55;;;;;;;6.80;6.13;;;4.80;99.90;;;;;;7389562;19;20338;-84
2021/11/23 12:52:25;;;;;;;5.85;5.13;;;4.80;99.90;;;;;;7394285;19;20325;-82
2021/11/23 12:54:51;;;;;;;5.53;5.00;;;4.90;99.90;;;;;;7391729;19;20316;-83
2021/11/23 12:57:18;;;;;;;5.95;4.82;;;4.90;99.90;;;;;;7390946;19;20347;-82
2021/11/23 12:59:58;;;;;;;5.78;5.10;;;4.90;99.90;;;;;;7393180;19;20679;-84
2021/11/23 13:02:33;;;;;;;6.57;4.55;;;4.90;99.90;;;;;;7289325;19;2005002;-83
2021/11/23 13:05:17;;;;;;;6.40;5.07;;;4.90;99.90;;;;;;7390352;19;20312;-82
2021/11/23 13:08:06;;;;;;;6.75;5.50;;;4.90;99.90;;;;;;7285389;19;2006264;-83
2021/11/23 13:10:57;;;;;;;6.78;5.32;;;4.90;99.90;;;;;;7285881;19;2004373;-84
2021/11/23 13:13:25;;;;;;;7.60;5.47;;;4.90;99.90;;;;;;7388081;19;20383;-83
2021/11/23 13:15:52;;;;;;;6.47;5.38;;;4.90;99.90;;;;;;7396535;19;20335;-84
2021/11/23 13:18:22;;;;;;;5.93;5.20;;;4.90;99.90;;;;;;7401591;19;20405;-83
2021/11/23 13:20:57;;;;;;;5.77;5.13;;;5.00;99.90;;;;;;7400738;19;20320;-83
2021/11/23 13:23:33;;;;;;;5.65;5.03;;;4.90;99.90;;;;;;7406355;19;20309;-87
2021/11/23 13:26:06;;;;;;;5.82;5.13;;;4.90;99.90;;;;;;7408645;19;20365;-86
2021/11/23 13:28:37;;;;;;;6.18;5.40;;;5.00;99.90;;;;;;7403644;19;20361;-85
2021/11/23 13:31:07;;;;;;;4.97;4.57;;;5.00;99.90;;;;;;7407748;19;20305;-84
2021/11/23 13:33:38;;;;;;;6.18;5.57;;;5.00;99.90;;;;;;7409779;19;20340;-83
2021/11/23 13:36:04;;;;;;;5.20;4.53;;;5.00;99.90;;;;;;7407460;19;20321;-86
2021/11/23 13:38:38;;;;;;;8.02;6.05;;;4.90;99.90;;;;;;7409368;19;20317;-85
2021/11/23 13:41:33;;;;;;;7.75;6.35;;;4.80;99.90;;;;;;7402852;19;20340;-86
2021/11/23 13:44:11;;;;;;;7.60;6.80;;;4.80;99.90;;;;;;7308030;19;2004446;-84
2021/11/23 13:46:44;;;;;;;7.93;6.17;;;4.80;99.90;;;;;;7407199;19;20320;-87
2021/11/23 13:49:24;;;;;;;7.87;6.00;;;4.80;99.90;;;;;;7409955;19;20317;-85
2021/11/23 13:52:12;;;;;;;6.95;6.15;;;4.80;99.90;;;;;;7306791;19;2004387;-85
2021/11/23 13:55:02;;;;;;;6.97;6.20;;;4.80;99.90;;;;;;7306050;19;2004458;-82
2021/11/23 13:57:40;;;;;;;7.65;6.10;;;4.80;99.90;;;;;;7402917;19;20356;-83
2021/11/23 14:00:22;;;;;;;9.00;7.20;;;4.90;99.90;;;;;;7407517;19;20304;-83
2021/11/23 14:02:55;;;;;;;5.97;5.38;;;4.90;99.90;;;;;;7309816;19;2004414;-86
2021/11/23 14:05:41;;;;;;;7.95;6.28;;;4.90;99.90;;;;;;7407810;19;20308;-83
2021/11/23 14:08:07;;;;;;;6.97;5.70;;;4.90;99.90;;;;;;7306165;19;2004394;-85
2021/11/23 14:10:47;;;;;;;7.63;6.72;;;4.80;99.90;;;;;;7409794;19;20317;-85
2021/11/23 14:13:15;;;;;;;6.93;6.22;;;4.80;99.90;;;;;;7405889;19;20327;-85
2021/11/23 14:15:42;;;;;;;6.82;5.43;;;4.80;99.90;;;;;;7411104;19;20320;-84
2021/11/23 14:18:11;;;;;;;6.88;6.10;;;4.90;99.90;;;;;;7408663;19;20408;-86
2021/11/23 14:20:56;;;;;;;9.77;6.78;;;4.90;99.90;;;;;;7406898;19;20304;-86
2021/11/23 14:23:49;;;;;;;8.70;7.13;;;4.90;99.90;;;;;;7299654;19;2004408;-84
2021/11/23 14:26:24;;;;;;;6.70;6.10;;;5.00;99.90;;;;;;7401194;19;20341;-84
2021/11/23 14:28:50;;;;;;;6.72;6.03;;;4.90;99.90;;;;;;7401439;19;20395;-82
2021/11/23 14:31:18;;;;;;;7.70;6.40;;;4.90;99.90;;;;;;7394329;19;20373;-81
2021/11/23 14:33:45;;;;;;;7.05;6.15;;;4.90;99.90;;;;;;7402296;19;20735;-81
2021/11/23 14:36:32;;;;;;;6.60;5.90;;;4.90;99.90;;;;;;7392436;19;20371;-85
2021/11/23 14:38:59;;;;;;;6.70;6.03;;;4.90;99.90;;;;;;7307555;19;2004458;-85
2021/11/23 14:41:25;;;;;;;7.43;6.30;;;5.00;99.90;;;;;;7407141;19;20316;-86
2021/11/23 14:43:51;;;;;;;7.80;6.53;;;5.00;99.90;;;;;;7401480;19;20386;-83
2021/11/23 14:46:16;;;;;;;9.50;6.80;;;4.90;99.90;;;;;;7389647;19;20325;-83
2021/11/23 14:48:42;;;;;;;7.20;6.50;;;4.90;99.90;;;;;;7399534;19;20331;-87
2021/11/23 14:51:08;;;;;;;7.75;6.95;;;4.90;99.90;;;;;;7403201;19;20383;-85
2021/11/23 14:53:36;;;;;;;10.15;7.05;;;4.90;99.90;;;;;;7400502;19;20367;-83
2021/11/23 14:56:03;;;;;;;10.50;7.32;;;4.90;99.90;;;;;;7385496;19;20630;-82
2021/11/23 14:58:30;;;;;;;7.97;7.18;;;4.80;99.90;;;;;;7383465;19;20352;-82
2021/11/23 15:00:56;;;;;;;11.95;8.13;;;4.90;99.90;;;;;;7385488;19;20348;-82
2021/11/23 15:03:21;;;;;;;7.90;7.10;;;4.90;99.90;;;;;;7388012;19;20327;-81